createdAt,value
2022-11-20T00:01:33.005Z,-5.55
2022-11-20T00:04:05.204Z,-5.57
2022-11-20T00:06:36.866Z,-5.60
2022-11-20T00:09:08.673Z,-5.63
2022-11-20T00:11:40.323Z,-5.67
2022-11-20T00:14:13.266Z,-5.70
2022-11-20T00:16:44.790Z,-5.72
2022-11-20T00:19:17.421Z,-5.74
2022-11-20T00:21:52.395Z,-5.76
2022-11-20T00:24:25.919Z,-5.79
2022-11-20T00:26:57.608Z,-5.81
2022-11-20T00:29:31.200Z,-5.83
2022-11-20T00:32:02.891Z,-5.85
2022-11-20T00:34:34.755Z,-5.86
2022-11-20T00:37:06.518Z,-5.87
2022-11-20T00:39:39.086Z,-5.88
2022-11-20T00:42:12.661Z,-5.89
2022-11-20T00:44:45.118Z,-5.89
2022-11-20T00:47:20.885Z,-5.89
2022-11-20T00:49:53.154Z,-5.88
2022-11-20T00:52:24.806Z,-5.88
2022-11-20T00:54:56.558Z,-5.86
2022-11-20T00:57:28.266Z,-5.83
2022-11-20T01:00:00.335Z,-5.83
2022-11-20T01:02:32.325Z,-5.80
2022-11-20T01:05:04.258Z,-5.77
2022-11-20T01:07:39.468Z,-5.74
2022-11-20T01:10:12.075Z,-5.73
2022-11-20T01:12:43.751Z,-5.71
2022-11-20T01:15:17.868Z,-5.69
2022-11-20T01:17:49.484Z,-5.68
2022-11-20T01:20:21.477Z,-5.67
2022-11-20T01:22:53.137Z,-5.65
2022-11-20T01:25:24.981Z,-5.64
2022-11-20T01:27:56.712Z,-5.64
2022-11-20T01:30:28.608Z,-5.64
2022-11-20T01:33:00.183Z,-5.64
2022-11-20T01:35:32.229Z,-5.63
2022-11-20T01:38:03.883Z,-5.64
2022-11-20T01:40:35.877Z,-5.64
2022-11-20T01:43:22.588Z,-5.65
2022-11-20T01:46:10.696Z,-5.65
2022-11-20T01:48:48.247Z,-5.64
2022-11-20T01:51:25.274Z,-5.63
2022-11-20T01:53:57.795Z,-5.62
2022-11-20T01:56:30.411Z,-5.60
2022-11-20T01:59:04.185Z,-5.58
2022-11-20T02:01:36.257Z,-5.56
2022-11-20T02:04:08.956Z,-5.54
2022-11-20T02:06:44.645Z,-5.52
2022-11-20T02:09:17.747Z,-5.50
2022-11-20T02:11:50.102Z,-5.48
2022-11-20T02:14:22.078Z,-5.48
2022-11-20T02:16:54.335Z,-5.46
2022-11-20T02:19:28.615Z,-5.45
2022-11-20T02:22:04.559Z,-5.46
2022-11-20T02:24:36.187Z,-5.46
2022-11-20T02:27:11.614Z,-5.47
2022-11-20T02:29:47.940Z,-5.48
2022-11-20T02:32:23.705Z,-5.49
2022-11-20T02:34:55.499Z,-5.50
2022-11-20T02:37:36.800Z,-5.50
2022-11-20T02:40:11.037Z,-5.50
2022-11-20T02:42:43.099Z,-5.51
2022-11-20T02:45:14.957Z,-5.51
2022-11-20T02:47:46.699Z,-5.52
2022-11-20T02:50:18.576Z,-5.51
2022-11-20T02:52:50.338Z,-5.51
2022-11-20T02:55:22.201Z,-5.52
2022-11-20T02:57:54.311Z,-5.54
2022-11-20T03:00:25.941Z,-5.54
2022-11-20T03:02:57.787Z,-5.56
2022-11-20T03:05:29.450Z,-5.56
2022-11-20T03:08:01.397Z,-5.57
2022-11-20T03:10:33.070Z,-5.56
2022-11-20T03:13:05.003Z,-5.56
2022-11-20T03:15:37.759Z,-5.56
2022-11-20T03:18:09.859Z,-5.56
2022-11-20T03:20:41.480Z,-5.55
2022-11-20T03:23:13.402Z,-5.56
2022-11-20T03:25:46.138Z,-5.56
2022-11-20T03:28:17.909Z,-5.58
2022-11-20T03:30:49.581Z,-5.58
2022-11-20T03:33:21.443Z,-5.58
2022-11-20T03:35:53.010Z,-5.59
2022-11-20T03:38:24.896Z,-5.61
2022-11-20T03:41:02.453Z,-5.63
2022-11-20T03:43:34.717Z,-5.65
2022-11-20T03:46:07.250Z,-5.66
2022-11-20T03:48:39.008Z,-5.68
2022-11-20T03:51:15.174Z,-5.70
2022-11-20T03:53:49.156Z,-5.71
2022-11-20T03:56:22.992Z,-5.72
2022-11-20T03:58:54.992Z,-5.72
2022-11-20T04:01:28.652Z,-5.73
2022-11-20T04:04:00.870Z,-5.74
2022-11-20T04:06:35.928Z,-5.74
2022-11-20T04:09:09.059Z,-5.75
2022-11-20T04:11:43.410Z,-5.77
2022-11-20T04:14:17.800Z,-5.78
2022-11-20T04:16:49.386Z,-5.78
2022-11-20T04:19:21.275Z,-5.80
2022-11-20T04:21:53.172Z,-5.80
2022-11-20T04:24:25.436Z,-5.82
2022-11-20T04:26:57.069Z,-5.82
2022-11-20T04:29:29.045Z,-5.84
2022-11-20T04:32:00.638Z,-5.85
2022-11-20T04:34:32.338Z,-5.87
2022-11-20T04:37:03.972Z,-5.87
2022-11-20T04:39:36.153Z,-5.87
2022-11-20T04:42:25.711Z,-5.89
2022-11-20T04:44:58.685Z,-5.91
2022-11-20T04:47:30.489Z,-5.93
2022-11-20T04:50:02.332Z,-5.95
2022-11-20T04:52:34.029Z,-5.97
2022-11-20T04:55:06.585Z,-6.00
2022-11-20T04:57:38.310Z,-6.01
2022-11-20T05:00:12.850Z,-6.02
2022-11-20T05:02:44.682Z,-6.03
2022-11-20T05:05:17.164Z,-6.05
2022-11-20T05:07:48.798Z,-6.07
2022-11-20T05:10:20.731Z,-6.08
2022-11-20T05:12:52.362Z,-6.11
2022-11-20T05:15:24.281Z,-6.12
2022-11-20T05:17:56.513Z,-6.15
2022-11-20T05:20:28.255Z,-6.16
2022-11-20T05:23:01.330Z,-6.18
2022-11-20T05:25:33.261Z,-6.19
2022-11-20T05:28:05.079Z,-6.23
2022-11-20T05:30:37.087Z,-6.25
2022-11-20T05:33:10.073Z,-6.27
2022-11-20T05:35:41.801Z,-6.29
2022-11-20T05:38:13.465Z,-6.31
2022-11-20T05:40:45.289Z,-6.33
2022-11-20T05:43:16.944Z,-6.36
2022-11-20T05:45:57.283Z,-6.37
2022-11-20T05:48:29.070Z,-6.39
2022-11-20T05:51:02.508Z,-6.40
2022-11-20T05:53:35.441Z,-6.42
2022-11-20T05:56:11.139Z,-6.43
2022-11-20T05:58:43.111Z,-6.44
2022-11-20T06:01:17.699Z,-6.45
2022-11-20T06:03:51.677Z,-6.46
2022-11-20T06:06:24.516Z,-6.46
2022-11-20T06:08:56.309Z,-6.46
2022-11-20T06:11:28.413Z,-6.46
2022-11-20T06:14:00.048Z,-6.47
2022-11-20T06:16:32.128Z,-6.48
2022-11-20T06:19:03.778Z,-6.49
2022-11-20T06:21:35.826Z,-6.50
2022-11-20T06:24:08.262Z,-6.51
2022-11-20T06:26:42.394Z,-6.52
2022-11-20T06:29:12.534Z,-6.52
2022-11-20T06:31:44.679Z,-6.52
2022-11-20T06:34:16.429Z,-6.52
2022-11-20T06:36:48.605Z,-6.52
2022-11-20T06:39:20.695Z,-6.52
2022-11-20T06:41:58.369Z,-6.53
2022-11-20T06:44:30.665Z,-6.51
2022-11-20T06:47:02.384Z,-6.51
2022-11-20T06:49:35.389Z,-6.49
2022-11-20T06:52:07.433Z,-6.47
2022-11-20T06:54:39.135Z,-6.44
2022-11-20T06:57:11.587Z,-6.42
2022-11-20T06:59:43.251Z,-6.39
2022-11-20T07:02:15.808Z,-6.35
2022-11-20T07:04:47.488Z,-6.32
2022-11-20T07:07:19.564Z,-6.29
2022-11-20T07:09:54.036Z,-6.28
2022-11-20T07:12:25.740Z,-6.27
2022-11-20T07:14:57.687Z,-6.26
2022-11-20T07:17:29.499Z,-6.24
2022-11-20T07:20:01.371Z,-6.22
2022-11-20T07:22:33.267Z,-6.19
2022-11-20T07:25:05.650Z,-6.16
2022-11-20T07:27:37.887Z,-6.12
2022-11-20T07:30:11.130Z,-6.08
2022-11-20T07:32:42.773Z,-6.02
2022-11-20T07:35:14.445Z,-5.97
2022-11-20T07:37:47.075Z,-5.91
2022-11-20T07:40:20.887Z,-5.85
2022-11-20T07:42:53.434Z,-5.80
2022-11-20T07:45:26.075Z,-5.72
2022-11-20T07:47:58.126Z,-5.65
2022-11-20T07:50:29.810Z,-5.57
2022-11-20T07:53:09.085Z,-5.48
2022-11-20T07:55:40.708Z,-5.37
2022-11-20T07:58:12.951Z,-5.21
2022-11-20T08:00:44.840Z,-4.92
2022-11-20T08:03:21.646Z,-4.46
2022-11-20T08:05:56.348Z,-3.95
2022-11-20T08:08:28.055Z,-3.44
2022-11-20T08:11:22.212Z,-2.99
2022-11-20T08:14:11.849Z,-2.55
2022-11-20T08:16:44.163Z,-2.16
2022-11-20T08:19:18.578Z,-1.85
2022-11-20T08:21:50.644Z,-1.52
2022-11-20T08:24:22.781Z,-1.18
2022-11-20T08:26:54.427Z,-0.86
2022-11-20T08:29:26.139Z,-0.56
2022-11-20T08:31:57.788Z,-0.18
2022-11-20T08:34:43.129Z,0.22
2022-11-20T08:37:14.717Z,0.62
2022-11-20T08:39:48.171Z,0.96
2022-11-20T08:42:19.967Z,1.16
2022-11-20T08:44:51.969Z,1.32
2022-11-20T08:47:23.598Z,1.51
2022-11-20T08:49:55.544Z,1.83
2022-11-20T08:52:27.165Z,2.17
2022-11-20T08:54:59.452Z,2.45
2022-11-20T08:57:31.036Z,2.66
2022-11-20T09:00:07.124Z,2.74
2022-11-20T09:02:39.079Z,2.72
2022-11-20T09:05:11.545Z,2.68
2022-11-20T09:07:43.256Z,2.60
2022-11-20T09:10:24.473Z,2.60
2022-11-20T09:12:57.416Z,2.68
2022-11-20T09:15:30.272Z,2.72
2022-11-20T09:18:03.476Z,2.65
2022-11-20T09:20:35.384Z,2.47
2022-11-20T09:23:07.012Z,2.34
2022-11-20T09:25:39.028Z,2.27
2022-11-20T09:28:10.704Z,2.17
2022-11-20T09:30:42.870Z,2.07
2022-11-20T09:33:14.636Z,1.91
2022-11-20T09:35:46.632Z,1.74
2022-11-20T09:38:18.351Z,1.47
2022-11-20T09:40:55.339Z,1.23
2022-11-20T09:43:35.248Z,1.01
2022-11-20T09:46:12.968Z,0.84
2022-11-20T09:48:54.691Z,0.59
2022-11-20T09:51:35.691Z,0.33
2022-11-20T09:54:17.744Z,0.10
2022-11-20T09:56:54.160Z,-0.07
2022-11-20T09:59:37.492Z,-0.21
2022-11-20T10:02:30.602Z,-0.35
2022-11-20T10:05:06.627Z,-0.44
2022-11-20T10:07:43.752Z,-0.51
2022-11-20T10:10:19.793Z,-0.59
2022-11-20T10:13:03.579Z,-0.65
2022-11-20T10:15:40.510Z,-0.66
2022-11-20T10:18:25.997Z,-0.66
2022-11-20T10:21:04.926Z,-0.66
2022-11-20T10:23:51.207Z,-0.68
2022-11-20T10:26:28.347Z,-0.68
2022-11-20T10:29:09.098Z,-0.75
2022-11-20T10:31:43.187Z,-0.82
2022-11-20T10:34:23.571Z,-0.85
2022-11-20T10:36:58.592Z,-0.85
2022-11-20T10:39:36.486Z,-0.84
2022-11-20T10:42:13.039Z,-0.81
2022-11-20T10:45:06.753Z,-0.81
2022-11-20T10:47:39.216Z,-0.83
2022-11-20T10:50:19.029Z,-0.84
2022-11-20T10:53:03.357Z,-0.83
2022-11-20T10:55:40.920Z,-0.82
2022-11-20T10:58:19.325Z,-0.78
2022-11-20T11:00:51.429Z,-0.76
2022-11-20T11:03:28.320Z,-0.75
2022-11-20T11:06:03.688Z,-0.73
2022-11-20T11:08:39.876Z,-0.70
2022-11-20T11:11:24.379Z,-0.67
2022-11-20T11:13:56.120Z,-0.63
2022-11-20T11:16:29.332Z,-0.62
2022-11-20T11:19:12.822Z,-0.60
2022-11-20T11:21:55.654Z,-0.57
2022-11-20T11:24:44.215Z,-0.52
2022-11-20T11:27:19.156Z,-0.49
2022-11-20T11:29:51.039Z,-0.46
2022-11-20T11:32:24.088Z,-0.43
2022-11-20T11:35:08.485Z,-0.40
2022-11-20T11:37:41.329Z,-0.36
2022-11-20T11:40:30.087Z,-0.35
2022-11-20T11:43:04.125Z,-0.33
2022-11-20T11:45:36.016Z,-0.32
2022-11-20T11:48:12.162Z,-0.30
2022-11-20T11:50:52.992Z,-0.27
2022-11-20T11:53:26.000Z,-0.24
2022-11-20T11:56:04.927Z,-0.23
2022-11-20T11:58:47.098Z,-0.24
2022-11-20T12:01:29.342Z,-0.28
2022-11-20T12:04:04.881Z,-0.31
2022-11-20T12:06:38.766Z,-0.32
2022-11-20T12:09:12.935Z,-0.32
2022-11-20T12:11:49.409Z,-0.32
2022-11-20T12:14:28.607Z,-0.32
2022-11-20T12:17:00.645Z,-0.33
2022-11-20T12:19:34.978Z,-0.32
2022-11-20T12:22:14.163Z,-0.30
2022-11-20T12:24:56.294Z,-0.29
2022-11-20T12:27:50.089Z,-0.28
2022-11-20T12:30:23.315Z,-0.28
2022-11-20T12:33:29.248Z,-0.27
2022-11-20T12:36:12.067Z,-0.27
2022-11-20T12:39:00.115Z,-0.26
2022-11-20T12:42:05.990Z,-0.25
2022-11-20T12:45:11.823Z,-0.25
2022-11-20T12:48:11.806Z,-0.25
2022-11-20T12:51:13.924Z,-0.25
2022-11-20T12:53:49.701Z,-0.25
2022-11-20T12:56:29.937Z,-0.26
2022-11-20T12:59:11.786Z,-0.26
2022-11-20T13:01:50.735Z,-0.27
2022-11-20T13:04:34.631Z,-0.28
2022-11-20T13:07:10.939Z,-0.26
2022-11-20T13:09:45.893Z,-0.27
2022-11-20T13:12:22.246Z,-0.26
2022-11-20T13:14:58.211Z,-0.26
2022-11-20T13:17:35.636Z,-0.24
2022-11-20T13:20:14.279Z,-0.22
2022-11-20T13:22:50.723Z,-0.20
2022-11-20T13:25:33.706Z,-0.18
2022-11-20T13:28:07.934Z,-0.15
2022-11-20T13:30:50.919Z,-0.13
2022-11-20T13:33:31.406Z,-0.13
2022-11-20T13:36:05.638Z,-0.15
2022-11-20T13:38:44.251Z,-0.17
2022-11-20T13:41:32.488Z,-0.18
2022-11-20T13:44:15.749Z,-0.19
2022-11-20T13:46:49.153Z,-0.18
2022-11-20T13:49:26.057Z,-0.19
2022-11-20T13:52:08.844Z,-0.21
2022-11-20T13:54:55.275Z,-0.23
2022-11-20T13:57:47.163Z,-0.26
2022-11-20T14:00:21.698Z,-0.30
2022-11-20T14:03:04.223Z,-0.33
2022-11-20T14:05:39.225Z,-0.36
2022-11-20T14:08:28.021Z,-0.37
2022-11-20T14:11:14.832Z,-0.41
2022-11-20T14:14:03.363Z,-0.46
2022-11-20T14:16:37.066Z,-0.50
2022-11-20T14:19:31.554Z,-0.55
2022-11-20T14:22:20.222Z,-0.61
2022-11-20T14:25:03.392Z,-0.67
2022-11-20T14:27:37.925Z,-0.70
2022-11-20T14:30:17.742Z,-0.73
2022-11-20T14:32:50.587Z,-0.77
2022-11-20T14:35:26.266Z,-0.80
2022-11-20T14:37:58.551Z,-0.84
2022-11-20T14:40:37.063Z,-0.87
2022-11-20T14:43:25.584Z,-0.89
2022-11-20T14:46:02.063Z,-0.90
2022-11-20T14:48:40.928Z,-0.93
2022-11-20T14:51:21.570Z,-0.95
2022-11-20T14:54:16.340Z,-0.95
2022-11-20T14:56:59.563Z,-0.96
2022-11-20T14:59:32.607Z,-0.97
2022-11-20T15:02:07.489Z,-1.00
2022-11-20T15:04:48.439Z,-1.04
2022-11-20T15:07:31.528Z,-1.07
2022-11-20T15:10:10.369Z,-1.10
2022-11-20T15:12:48.177Z,-1.14
2022-11-20T15:15:23.083Z,-1.18
2022-11-20T15:17:55.366Z,-1.21
2022-11-20T15:20:31.775Z,-1.24
2022-11-20T15:23:04.501Z,-1.27
2022-11-20T15:25:40.030Z,-1.32
2022-11-20T15:28:18.749Z,-1.35
2022-11-20T15:30:52.116Z,-1.40
2022-11-20T15:33:26.891Z,-1.43
2022-11-20T15:36:01.101Z,-1.46
2022-11-20T15:38:34.186Z,-1.49
2022-11-20T15:41:10.609Z,-1.52
2022-11-20T15:43:45.054Z,-1.55
2022-11-20T15:46:21.756Z,-1.59
2022-11-20T15:48:58.619Z,-1.64
2022-11-20T15:51:33.111Z,-1.68
2022-11-20T15:54:10.420Z,-1.70
2022-11-20T15:56:43.403Z,-1.72
2022-11-20T15:59:17.361Z,-1.73
2022-11-20T16:01:52.065Z,-1.77
2022-11-20T16:04:25.008Z,-1.81
2022-11-20T16:07:02.065Z,-1.83
2022-11-20T16:09:34.674Z,-1.86
2022-11-20T16:12:30.624Z,-1.89
2022-11-20T16:15:21.269Z,-1.93
2022-11-20T16:17:57.140Z,-1.96
2022-11-20T16:20:30.651Z,-1.99
2022-11-20T16:23:12.477Z,-2.03
2022-11-20T16:25:46.142Z,-2.06
2022-11-20T16:28:19.314Z,-2.10
2022-11-20T16:30:52.146Z,-2.13
2022-11-20T16:33:25.939Z,-2.16
2022-11-20T16:36:01.929Z,-2.19
2022-11-20T16:38:34.762Z,-2.21
2022-11-20T16:41:14.485Z,-2.22
2022-11-20T16:43:51.857Z,-2.22
2022-11-20T17:12:50.280Z,-2.03
2022-11-20T17:15:22.218Z,-2.07
2022-11-20T17:17:54.202Z,-2.12
2022-11-20T17:20:26.250Z,-2.17
2022-11-20T17:22:59.420Z,-2.20
2022-11-20T17:25:36.607Z,-2.21
2022-11-20T17:28:09.221Z,-2.22
2022-11-20T17:30:41.878Z,-2.23
2022-11-20T17:33:14.673Z,-2.24
2022-11-20T17:35:47.005Z,-2.25
2022-11-20T17:38:19.770Z,-2.25
2022-11-20T17:40:51.634Z,-2.26
2022-11-20T17:43:23.789Z,-2.29
2022-11-20T17:45:58.930Z,-2.31
2022-11-20T17:48:34.428Z,-2.33
2022-11-20T17:51:08.335Z,-2.37
2022-11-20T17:53:45.545Z,-2.39
2022-11-20T17:56:34.915Z,-2.42
2022-11-20T17:59:09.141Z,-2.46
2022-11-20T18:01:43.263Z,-2.50
2022-11-20T18:04:13.978Z,-2.52
2022-11-20T18:06:46.687Z,-2.55
2022-11-20T18:09:19.881Z,-2.57
2022-11-20T18:11:51.766Z,-2.59
2022-11-20T18:14:34.663Z,-2.60
2022-11-20T18:17:07.737Z,-2.62
2022-11-20T18:19:51.619Z,-2.63
2022-11-20T18:22:32.584Z,-2.66
2022-11-20T18:25:04.320Z,-2.68
2022-11-20T18:27:36.533Z,-2.71
2022-11-20T18:30:10.309Z,-2.73
2022-11-20T18:32:42.825Z,-2.76
2022-11-20T18:35:15.344Z,-2.77
2022-11-20T18:37:48.157Z,-2.79
2022-11-20T18:40:20.552Z,-2.81
2022-11-20T18:43:09.990Z,-2.83
2022-11-20T18:45:42.636Z,-2.84
2022-11-20T18:48:14.594Z,-2.86
2022-11-20T18:50:47.062Z,-2.89
2022-11-20T18:53:18.935Z,-2.90
2022-11-20T18:55:51.268Z,-2.92
2022-11-20T18:58:23.081Z,-2.94
2022-11-20T19:00:55.298Z,-2.94
2022-11-20T19:03:29.673Z,-2.96
2022-11-20T19:06:02.048Z,-2.96
2022-11-20T19:08:36.578Z,-2.97
2022-11-20T19:11:10.355Z,-2.97
2022-11-20T19:13:42.397Z,-2.98
2022-11-20T19:16:18.043Z,-2.99
2022-11-20T19:18:50.338Z,-2.99
2022-11-20T19:21:23.943Z,-2.98
2022-11-20T19:23:58.539Z,-2.97
2022-11-20T19:26:31.271Z,-2.96
2022-11-20T19:29:15.766Z,-2.95
2022-11-20T19:31:49.282Z,-2.96
2022-11-20T19:34:34.763Z,-2.95
2022-11-20T19:37:11.288Z,-2.94
2022-11-20T19:39:43.518Z,-2.95
2022-11-20T19:42:16.720Z,-2.95
2022-11-20T19:44:48.461Z,-2.94
2022-11-20T19:47:40.825Z,-2.94
2022-11-20T19:50:25.791Z,-2.94
2022-11-20T19:53:02.272Z,-2.95
2022-11-20T19:55:34.870Z,-2.96
2022-11-20T19:58:07.095Z,-2.97
2022-11-20T20:00:39.068Z,-2.98
2022-11-20T20:03:14.904Z,-2.99
2022-11-20T20:05:52.320Z,-3.00
2022-11-20T20:08:24.412Z,-3.03
2022-11-20T20:10:59.918Z,-3.03
2022-11-20T20:13:33.570Z,-3.03
2022-11-20T20:16:11.592Z,-3.02
2022-11-20T20:18:45.801Z,-2.99
2022-11-20T20:21:24.328Z,-2.97
2022-11-20T20:23:57.404Z,-2.94
2022-11-20T20:26:31.606Z,-2.92
2022-11-20T20:29:04.971Z,-2.90
2022-11-20T20:31:38.492Z,-2.88
2022-11-20T20:34:15.510Z,-2.88
2022-11-20T20:36:47.300Z,-2.88
2022-11-20T20:39:20.030Z,-2.87
2022-11-20T20:41:53.470Z,-2.87
2022-11-20T20:44:43.025Z,-2.86
2022-11-20T20:47:14.874Z,-2.85
2022-11-20T20:49:47.114Z,-2.84
2022-11-20T20:52:19.108Z,-2.84
2022-11-20T20:54:51.382Z,-2.83
2022-11-20T20:57:23.801Z,-2.84
2022-11-20T20:59:55.965Z,-2.85
2022-11-20T21:02:28.246Z,-2.85
2022-11-20T21:05:00.657Z,-2.86
2022-11-20T21:07:33.629Z,-2.86
2022-11-20T21:10:05.911Z,-2.86
2022-11-20T21:12:37.758Z,-2.85
2022-11-20T21:15:10.825Z,-2.85
2022-11-20T21:17:44.424Z,-2.84
2022-11-20T21:20:45.269Z,-2.84
2022-11-20T21:23:17.728Z,-2.83
2022-11-20T21:25:49.851Z,-2.82
2022-11-20T21:28:21.879Z,-2.81
2022-11-20T21:30:54.050Z,-2.80
2022-11-20T21:33:26.004Z,-2.80
2022-11-20T21:35:57.894Z,-2.78
2022-11-20T21:38:29.761Z,-2.78
2022-11-20T21:41:01.705Z,-2.78
2022-11-20T21:43:33.657Z,-2.76
2022-11-20T21:46:07.819Z,-2.76
2022-11-20T21:48:46.654Z,-2.77
2022-11-20T21:51:22.924Z,-2.77
2022-11-20T21:53:57.931Z,-2.76
2022-11-20T21:56:29.996Z,-2.75
2022-11-20T21:59:02.092Z,-2.73
2022-11-20T22:01:34.224Z,-2.72
2022-11-20T22:04:07.833Z,-2.71
2022-11-20T22:06:39.639Z,-2.69
2022-11-20T22:09:12.782Z,-2.69
2022-11-20T22:11:44.507Z,-2.67
2022-11-20T22:14:22.785Z,-2.65
2022-11-20T22:16:56.425Z,-2.65
2022-11-20T22:19:31.970Z,-2.65
2022-11-20T22:22:04.089Z,-2.65
2022-11-20T22:24:35.721Z,-2.65
2022-11-20T22:27:07.599Z,-2.66
2022-11-20T22:29:39.409Z,-2.65
2022-11-20T22:32:11.292Z,-2.66
2022-11-20T22:34:43.016Z,-2.67
2022-11-20T22:37:16.183Z,-2.68
2022-11-20T22:39:48.916Z,-2.69
2022-11-20T22:42:20.913Z,-2.71
2022-11-20T22:44:52.956Z,-2.74
2022-11-20T22:47:25.117Z,-2.77
2022-11-20T22:49:56.984Z,-2.79
2022-11-20T22:52:29.006Z,-2.81
2022-11-20T22:55:00.676Z,-2.83
2022-11-20T22:57:34.019Z,-2.85
2022-11-20T23:00:15.099Z,-2.88
2022-11-20T23:02:47.795Z,-2.91
2022-11-20T23:05:22.195Z,-2.93
2022-11-20T23:08:07.225Z,-2.96
2022-11-20T23:10:42.685Z,-2.99
2022-11-20T23:13:19.111Z,-3.03
2022-11-20T23:15:52.989Z,-3.06
2022-11-20T23:18:35.506Z,-3.09
2022-11-20T23:21:09.868Z,-3.11
2022-11-20T23:23:42.757Z,-3.15
2022-11-20T23:26:16.577Z,-3.18
2022-11-20T23:28:49.571Z,-3.21
2022-11-20T23:31:24.137Z,-3.23
2022-11-20T23:33:57.635Z,-3.26
2022-11-20T23:36:30.297Z,-3.29
2022-11-20T23:39:02.195Z,-3.31
2022-11-20T23:41:34.200Z,-3.33
2022-11-20T23:44:06.164Z,-3.35
2022-11-20T23:46:38.979Z,-3.37
2022-11-20T23:49:11.595Z,-3.38
2022-11-20T23:51:43.663Z,-3.40
2022-11-20T23:54:15.452Z,-3.40
2022-11-20T23:56:47.179Z,-3.41
2022-11-20T23:59:19.508Z,-3.43
